Montgomery, NY

11:21 AM EST en Diciembre 18, 2014 (GMT -0500)
Sussex | Change Station
CLOSE
Current Station
Aeropuerto
Location: Sussex,
Altura: 420 ft
Estaciones meteorológicas cercanas

Alt 420 ft 41.20 °N, 74.63 °W | Updated 28 minutes ago

Nublado
Nublado
37 ° F
Sensación térmica 32 ° F
N
7
Viento Variable Viento desde Variable

Hoy
Alta -- | Baja -- ° F
--% Posibilidad de precipitaciones
Ayer
Alta -- | Baja -- ° F
Precip. -- pul
7:18 AM 4:28 PM
Creciente menguante, 13% visible
Presión 29.98 pul
Visibilidad 10.0 Millas
Nubes Nublado 3600 ft
Vientos helados 32 ° F
Punto de rocío 23 ° F
Humedad 57%
Precipitaciones 0.00 pul
Espesor de la nieve No disponible.
UV 1 de una escala de 12
Polen .10 de una escala de 12
Calidad del aire No disponible.
Flu Activity No disponible.
METAR KFWN 181553Z AUTO VRB06KT 10SM OVC036 03/M05 A2997 RMK AO2 SLP152 T00281050

More Conditions Fewer Conditions

Presión 29.98 pul
Visibilidad 10.0 Millas
Nubes Nublado 3600 ft
Vientos helados 32 ° F
Punto de rocío 23 ° F
Humedad 57%
Precipitaciones 0.00 pul
Espesor de la nieve No disponible.
UV 1 de una escala de 12
Polen .10 de una escala de 12
Calidad del aire No disponible.
Flu Activity No disponible.
METAR KFWN 181553Z AUTO VRB06KT 10SM OVC036 03/M05 A2997 RMK AO2 SLP152 T00281050

More Conditions Fewer Conditions

10-Day Weather Forecast

Almanac

Astronomía

Dec. 18, 2014 Salida Puesta
Hora real
Crepúsculo civil
Crepúsculo náutico
Crepúsculo astronómico
Luna
Horas de luz
Horas de luz
Tomorrow will be .
, % of the Moon is Illuminated

Extremos de hoy

Máximos del estado Bajos del estado

Community

WunderPhotos

Upload Photos

1,778,955 ¡fotos cargadas!

WunderBlogs® & News

Nearby

Calidad del aire

  Calidad del aire Índice AQ Contaminante
Not available.

Grosos de nieve

Estación Profundido Altura

Actividad de terremotos

Ciudad Distance Mag. Tiempo y dato
Magnitud mínima muestra es 2,5.

Temperaturas de aguas costeras

Lugar Temperatura

Estaciones meteorológicas cercanas